sensor_id;sensor_type;location;lat;lon;timestamp;temperature;humidity
52963;DHT22;38827;53.024;6.596;2024-03-17T00:02:56;4.70;79.00
52963;DHT22;38827;53.024;6.596;2024-03-17T00:05:38;4.60;79.20
52963;DHT22;38827;53.024;6.596;2024-03-17T00:08:19;4.60;79.20
52963;DHT22;38827;53.024;6.596;2024-03-17T00:11:11;4.90;78.90
52963;DHT22;38827;53.024;6.596;2024-03-17T00:13:40;4.60;79.30
52963;DHT22;38827;53.024;6.596;2024-03-17T00:16:16;4.60;79.60
52963;DHT22;38827;53.024;6.596;2024-03-17T00:19:11;4.60;79.60
52963;DHT22;38827;53.024;6.596;2024-03-17T00:21:36;4.60;79.70
52963;DHT22;38827;53.024;6.596;2024-03-17T00:24:02;4.60;79.80
52963;DHT22;38827;53.024;6.596;2024-03-17T00:26:52;4.60;79.80
52963;DHT22;38827;53.024;6.596;2024-03-17T00:36:26;4.40;79.40
52963;DHT22;38827;53.024;6.596;2024-03-17T00:42:40;4.30;79.70
52963;DHT22;38827;53.024;6.596;2024-03-17T00:45:11;4.20;79.60
52963;DHT22;38827;53.024;6.596;2024-03-17T00:51:21;4.20;79.80
52963;DHT22;38827;53.024;6.596;2024-03-17T00:54:01;4.10;79.80
52963;DHT22;38827;53.024;6.596;2024-03-17T01:03:32;3.90;80.10
52963;DHT22;38827;53.024;6.596;2024-03-17T01:05:57;3.80;80.30
52963;DHT22;38827;53.024;6.596;2024-03-17T01:08:46;3.80;80.30
52963;DHT22;38827;53.024;6.596;2024-03-17T01:19:07;3.60;80.30
52963;DHT22;38827;53.024;6.596;2024-03-17T01:38:55;3.50;80.80
52963;DHT22;38827;53.024;6.596;2024-03-17T01:41:33;3.40;80.80
52963;DHT22;38827;53.024;6.596;2024-03-17T01:53:26;3.30;81.20
52963;DHT22;38827;53.024;6.596;2024-03-17T02:00:01;3.30;81.30
52963;DHT22;38827;53.024;6.596;2024-03-17T02:02:42;3.20;81.10
52963;DHT22;38827;53.024;6.596;2024-03-17T02:05:08;3.20;81.10
52963;DHT22;38827;53.024;6.596;2024-03-17T02:11:43;3.10;81.30
52963;DHT22;38827;53.024;6.596;2024-03-17T02:14:14;3.00;81.40
52963;DHT22;38827;53.024;6.596;2024-03-17T02:20:53;2.90;81.40
52963;DHT22;38827;53.024;6.596;2024-03-17T02:24:08;2.90;81.50
52963;DHT22;38827;53.024;6.596;2024-03-17T02:29:15;2.90;81.40
52963;DHT22;38827;53.024;6.596;2024-03-17T02:35:03;2.90;81.40
52963;DHT22;38827;53.024;6.596;2024-03-17T02:37:30;2.80;81.20
52963;DHT22;38827;53.024;6.596;2024-03-17T02:43:44;2.70;81.20
52963;DHT22;38827;53.024;6.596;2024-03-17T02:46:32;2.70;81.50
52963;DHT22;38827;53.024;6.596;2024-03-17T02:49:11;2.70;81.50
52963;DHT22;38827;53.024;6.596;2024-03-17T02:55:20;2.70;81.80
52963;DHT22;38827;53.024;6.596;2024-03-17T02:58:01;2.70;81.90
52963;DHT22;38827;53.024;6.596;2024-03-17T03:00:30;2.70;81.90
52963;DHT22;38827;53.024;6.596;2024-03-17T03:03:14;2.80;82.00
52963;DHT22;38827;53.024;6.596;2024-03-17T03:05:54;2.80;81.80
52963;DHT22;38827;53.024;6.596;2024-03-17T03:08:41;2.90;81.90
52963;DHT22;38827;53.024;6.596;2024-03-17T03:14:44;2.90;81.50
52963;DHT22;38827;53.024;6.596;2024-03-17T03:32:50;2.70;81.50
52963;DHT22;38827;53.024;6.596;2024-03-17T03:38:30;2.70;81.70
52963;DHT22;38827;53.024;6.596;2024-03-17T03:44:35;2.80;81.80
52963;DHT22;38827;53.024;6.596;2024-03-17T03:47:13;2.80;82.10
52963;DHT22;38827;53.024;6.596;2024-03-17T03:49:39;2.90;82.00
52963;DHT22;38827;53.024;6.596;2024-03-17T03:52:23;2.90;82.00
52963;DHT22;38827;53.024;6.596;2024-03-17T03:58:44;3.00;82.00
52963;DHT22;38827;53.024;6.596;2024-03-17T04:01:48;3.10;82.00
52963;DHT22;38827;53.024;6.596;2024-03-17T04:04:18;3.10;81.90
52963;DHT22;38827;53.024;6.596;2024-03-17T04:10:15;3.20;82.00
52963;DHT22;38827;53.024;6.596;2024-03-17T04:13:09;3.30;81.90
52963;DHT22;38827;53.024;6.596;2024-03-17T04:15:53;3.30;82.00
52963;DHT22;38827;53.024;6.596;2024-03-17T04:18:31;3.40;82.00
52963;DHT22;38827;53.024;6.596;2024-03-17T04:21:21;3.40;82.10
52963;DHT22;38827;53.024;6.596;2024-03-17T04:26:51;3.60;81.90
52963;DHT22;38827;53.024;6.596;2024-03-17T04:29:20;3.60;82.10
52963;DHT22;38827;53.024;6.596;2024-03-17T04:35:05;3.70;82.10
52963;DHT22;38827;53.024;6.596;2024-03-17T04:37:32;3.70;82.30
52963;DHT22;38827;53.024;6.596;2024-03-17T04:44:00;3.90;82.40
52963;DHT22;38827;53.024;6.596;2024-03-17T04:46:30;3.90;82.50
52963;DHT22;38827;53.024;6.596;2024-03-17T04:49:02;4.00;82.40
52963;DHT22;38827;53.024;6.596;2024-03-17T04:52:00;4.00;82.50
52963;DHT22;38827;53.024;6.596;2024-03-17T04:57:38;4.10;82.40
52963;DHT22;38827;53.024;6.596;2024-03-17T05:00:13;4.10;82.60
52963;DHT22;38827;53.024;6.596;2024-03-17T05:02:57;4.10;82.60
52963;DHT22;38827;53.024;6.596;2024-03-17T05:05:46;4.20;82.60
52963;DHT22;38827;53.024;6.596;2024-03-17T05:08:33;4.20;82.60
52963;DHT22;38827;53.024;6.596;2024-03-17T05:11:02;4.20;82.60
52963;DHT22;38827;53.024;6.596;2024-03-17T05:14:38;4.20;82.70
52963;DHT22;38827;53.024;6.596;2024-03-17T05:17:07;4.30;82.60
52963;DHT22;38827;53.024;6.596;2024-03-17T05:19:35;4.30;82.80
52963;DHT22;38827;53.024;6.596;2024-03-17T05:22:01;4.30;82.80
52963;DHT22;38827;53.024;6.596;2024-03-17T05:24:35;4.30;82.80
52963;DHT22;38827;53.024;6.596;2024-03-17T05:27:20;4.40;82.90
52963;DHT22;38827;53.024;6.596;2024-03-17T05:29:45;4.40;82.80
52963;DHT22;38827;53.024;6.596;2024-03-17T05:32:11;4.40;82.80
52963;DHT22;38827;53.024;6.596;2024-03-17T05:34:37;4.40;82.90
52963;DHT22;38827;53.024;6.596;2024-03-17T05:37:06;4.40;82.80
52963;DHT22;38827;53.024;6.596;2024-03-17T05:39:32;4.40;82.80
52963;DHT22;38827;53.024;6.596;2024-03-17T05:45:04;4.40;82.90
52963;DHT22;38827;53.024;6.596;2024-03-17T05:47:51;4.50;82.70
52963;DHT22;38827;53.024;6.596;2024-03-17T05:53:50;4.50;82.60
52963;DHT22;38827;53.024;6.596;2024-03-17T06:03:48;4.50;83.00
52963;DHT22;38827;53.024;6.596;2024-03-17T06:06:32;4.50;83.00
52963;DHT22;38827;53.024;6.596;2024-03-17T06:13:03;4.60;83.00
52963;DHT22;38827;53.024;6.596;2024-03-17T06:15:38;4.60;83.20
52963;DHT22;38827;53.024;6.596;2024-03-17T06:18:32;4.70;83.10
52963;DHT22;38827;53.024;6.596;2024-03-17T06:21:45;4.70;83.10
52963;DHT22;38827;53.024;6.596;2024-03-17T06:24:33;4.80;83.00
52963;DHT22;38827;53.024;6.596;2024-03-17T06:27:21;4.80;83.10
52963;DHT22;38827;53.024;6.596;2024-03-17T06:29:59;4.90;83.00
52963;DHT22;38827;53.024;6.596;2024-03-17T06:33:04;5.00;82.90
52963;DHT22;38827;53.024;6.596;2024-03-17T06:35:53;5.10;82.70
52963;DHT22;38827;53.024;6.596;2024-03-17T06:47:16;5.60;82.30
52963;DHT22;38827;53.024;6.596;2024-03-17T06:53:40;6.00;81.70
52963;DHT22;38827;53.024;6.596;2024-03-17T07:03:33;6.50;80.60
52963;DHT22;38827;53.024;6.596;2024-03-17T07:09:28;6.70;79.80
52963;DHT22;38827;53.024;6.596;2024-03-17T07:12:03;6.90;79.60
52963;DHT22;38827;53.024;6.596;2024-03-17T07:22:20;7.90;77.10
52963;DHT22;38827;53.024;6.596;2024-03-17T07:25:32;7.80;77.50
52963;DHT22;38827;53.024;6.596;2024-03-17T07:28:19;8.30;75.80
52963;DHT22;38827;53.024;6.596;2024-03-17T07:37:41;8.20;74.30
52963;DHT22;38827;53.024;6.596;2024-03-17T07:40:16;8.00;74.50
52963;DHT22;38827;53.024;6.596;2024-03-17T07:42:45;8.00;74.60
52963;DHT22;38827;53.024;6.596;2024-03-17T07:49:07;8.00;74.30
52963;DHT22;38827;53.024;6.596;2024-03-17T08:00:33;7.90;74.50
52963;DHT22;38827;53.024;6.596;2024-03-17T08:02:59;8.00;74.10
52963;DHT22;38827;53.024;6.596;2024-03-17T08:09:16;8.10;73.90
52963;DHT22;38827;53.024;6.596;2024-03-17T08:15:20;8.10;73.80
52963;DHT22;38827;53.024;6.596;2024-03-17T08:18:04;8.10;73.70
52963;DHT22;38827;53.024;6.596;2024-03-17T08:21:13;8.20;73.60
52963;DHT22;38827;53.024;6.596;2024-03-17T08:27:00;8.30;73.20
52963;DHT22;38827;53.024;6.596;2024-03-17T08:35:08;8.60;72.70
52963;DHT22;38827;53.024;6.596;2024-03-17T08:37:55;8.70;72.00
52963;DHT22;38827;53.024;6.596;2024-03-17T08:41:04;8.80;72.30
52963;DHT22;38827;53.024;6.596;2024-03-17T08:43:52;8.80;71.80
52963;DHT22;38827;53.024;6.596;2024-03-17T08:46:21;8.90;70.80
52963;DHT22;38827;53.024;6.596;2024-03-17T08:48:56;8.90;70.80
52963;DHT22;38827;53.024;6.596;2024-03-17T08:51:37;9.00;70.30
52963;DHT22;38827;53.024;6.596;2024-03-17T08:54:49;9.00;70.30
52963;DHT22;38827;53.024;6.596;2024-03-17T08:57:41;9.10;69.50
52963;DHT22;38827;53.024;6.596;2024-03-17T09:13:28;10.20;66.80
52963;DHT22;38827;53.024;6.596;2024-03-17T09:15:56;10.40;66.60
52963;DHT22;38827;53.024;6.596;2024-03-17T09:19:04;10.60;66.20
52963;DHT22;38827;53.024;6.596;2024-03-17T09:21:48;10.80;65.20
52963;DHT22;38827;53.024;6.596;2024-03-17T09:24:20;10.90;64.10
52963;DHT22;38827;53.024;6.596;2024-03-17T09:26:58;11.00;64.20
52963;DHT22;38827;53.024;6.596;2024-03-17T09:29:24;11.10;63.80
52963;DHT22;38827;53.024;6.596;2024-03-17T09:31:56;11.30;63.70
52963;DHT22;38827;53.024;6.596;2024-03-17T09:34:30;11.70;63.20
52963;DHT22;38827;53.024;6.596;2024-03-17T09:37:05;12.40;62.40
52963;DHT22;38827;53.024;6.596;2024-03-17T09:39:54;13.60;60.10
52963;DHT22;38827;53.024;6.596;2024-03-17T09:45:31;14.00;57.00
52963;DHT22;38827;53.024;6.596;2024-03-17T09:59:25;13.40;58.20
52963;DHT22;38827;53.024;6.596;2024-03-17T10:01:54;13.20;58.10
52963;DHT22;38827;53.024;6.596;2024-03-17T10:04:32;13.00;58.40
52963;DHT22;38827;53.024;6.596;2024-03-17T10:06:59;12.80;58.10
52963;DHT22;38827;53.024;6.596;2024-03-17T10:09:25;12.60;58.90
52963;DHT22;38827;53.024;6.596;2024-03-17T10:11:50;12.50;59.10
52963;DHT22;38827;53.024;6.596;2024-03-17T10:14:19;12.30;59.20
52963;DHT22;38827;53.024;6.596;2024-03-17T10:16:45;12.20;59.40
52963;DHT22;38827;53.024;6.596;2024-03-17T10:19:14;12.20;59.50
52963;DHT22;38827;53.024;6.596;2024-03-17T10:21:42;12.10;59.60
52963;DHT22;38827;53.024;6.596;2024-03-17T10:24:26;12.10;59.70
52963;DHT22;38827;53.024;6.596;2024-03-17T10:26:58;12.00;59.00
52963;DHT22;38827;53.024;6.596;2024-03-17T10:29:29;11.90;59.20
52963;DHT22;38827;53.024;6.596;2024-03-17T10:32:14;11.90;58.90
52963;DHT22;38827;53.024;6.596;2024-03-17T10:34:42;11.80;58.70
52963;DHT22;38827;53.024;6.596;2024-03-17T10:37:08;11.70;58.90
52963;DHT22;38827;53.024;6.596;2024-03-17T10:39:41;11.70;59.40
52963;DHT22;38827;53.024;6.596;2024-03-17T10:42:09;11.70;59.60
52963;DHT22;38827;53.024;6.596;2024-03-17T10:44:36;11.80;60.00
52963;DHT22;38827;53.024;6.596;2024-03-17T10:47:03;11.90;59.50
52963;DHT22;38827;53.024;6.596;2024-03-17T10:49:35;11.90;58.90
52963;DHT22;38827;53.024;6.596;2024-03-17T10:52:05;11.90;59.00
52963;DHT22;38827;53.024;6.596;2024-03-17T10:54:31;11.90;59.10
52963;DHT22;38827;53.024;6.596;2024-03-17T10:59:48;11.90;59.30
52963;DHT22;38827;53.024;6.596;2024-03-17T11:07:56;11.90;59.50
52963;DHT22;38827;53.024;6.596;2024-03-17T11:10:52;11.80;59.80
52963;DHT22;38827;53.024;6.596;2024-03-17T11:13:47;11.80;59.80
52963;DHT22;38827;53.024;6.596;2024-03-17T11:16:25;11.80;59.60
52963;DHT22;38827;53.024;6.596;2024-03-17T11:18:52;11.80;59.30
52963;DHT22;38827;53.024;6.596;2024-03-17T11:21:18;11.80;59.80
52963;DHT22;38827;53.024;6.596;2024-03-17T11:24:00;11.80;59.60
52963;DHT22;38827;53.024;6.596;2024-03-17T11:26:28;11.80;59.00
52963;DHT22;38827;53.024;6.596;2024-03-17T11:28:54;11.80;59.30
52963;DHT22;38827;53.024;6.596;2024-03-17T11:31:38;11.70;59.30
52963;DHT22;38827;53.024;6.596;2024-03-17T11:36:51;11.60;59.30
52963;DHT22;38827;53.024;6.596;2024-03-17T11:39:19;11.60;59.30
52963;DHT22;38827;53.024;6.596;2024-03-17T11:41:53;11.60;59.00
52963;DHT22;38827;53.024;6.596;2024-03-17T11:49:22;11.60;58.70
52963;DHT22;38827;53.024;6.596;2024-03-17T11:51:49;11.50;58.70
52963;DHT22;38827;53.024;6.596;2024-03-17T11:54:20;11.50;58.80
52963;DHT22;38827;53.024;6.596;2024-03-17T11:56:48;11.50;59.00
52963;DHT22;38827;53.024;6.596;2024-03-17T11:59:15;11.60;59.20
52963;DHT22;38827;53.024;6.596;2024-03-17T12:01:44;11.50;59.20
52963;DHT22;38827;53.024;6.596;2024-03-17T12:04:28;11.60;59.10
52963;DHT22;38827;53.024;6.596;2024-03-17T12:06:59;11.70;59.00
52963;DHT22;38827;53.024;6.596;2024-03-17T12:09:53;11.70;58.70
52963;DHT22;38827;53.024;6.596;2024-03-17T12:12:31;11.80;58.40
52963;DHT22;38827;53.024;6.596;2024-03-17T12:15:22;11.90;58.60
52963;DHT22;38827;53.024;6.596;2024-03-17T12:17:59;12.00;58.30
52963;DHT22;38827;53.024;6.596;2024-03-17T12:20:34;12.00;58.00
52963;DHT22;38827;53.024;6.596;2024-03-17T12:23:25;12.10;57.90
52963;DHT22;38827;53.024;6.596;2024-03-17T12:26:25;12.20;57.30
52963;DHT22;38827;53.024;6.596;2024-03-17T12:32:32;12.40;57.10
52963;DHT22;38827;53.024;6.596;2024-03-17T12:34:58;12.50;56.50
52963;DHT22;38827;53.024;6.596;2024-03-17T12:37:27;12.50;56.70
52963;DHT22;38827;53.024;6.596;2024-03-17T12:42:59;12.50;55.10
52963;DHT22;38827;53.024;6.596;2024-03-17T12:45:24;12.50;56.40
52963;DHT22;38827;53.024;6.596;2024-03-17T12:47:51;12.60;56.00
52963;DHT22;38827;53.024;6.596;2024-03-17T12:50:20;12.60;55.60
52963;DHT22;38827;53.024;6.596;2024-03-17T12:52:53;12.60;55.20
52963;DHT22;38827;53.024;6.596;2024-03-17T12:55:20;12.60;54.60
52963;DHT22;38827;53.024;6.596;2024-03-17T13:01:06;12.60;54.80
52963;DHT22;38827;53.024;6.596;2024-03-17T13:03:34;12.70;54.10
52963;DHT22;38827;53.024;6.596;2024-03-17T13:06:04;12.80;54.50
52963;DHT22;38827;53.024;6.596;2024-03-17T13:08:32;12.80;54.10
52963;DHT22;38827;53.024;6.596;2024-03-17T13:10:59;12.80;54.30
52963;DHT22;38827;53.024;6.596;2024-03-17T13:15:55;12.90;53.70
52963;DHT22;38827;53.024;6.596;2024-03-17T13:18:27;12.80;53.20
52963;DHT22;38827;53.024;6.596;2024-03-17T13:20:59;12.80;53.20
52963;DHT22;38827;53.024;6.596;2024-03-17T13:23:26;12.80;53.30
52963;DHT22;38827;53.024;6.596;2024-03-17T13:26:12;12.90;53.10
52963;DHT22;38827;53.024;6.596;2024-03-17T13:28:44;13.00;52.50
52963;DHT22;38827;53.024;6.596;2024-03-17T13:31:15;13.00;52.60
52963;DHT22;38827;53.024;6.596;2024-03-17T13:33:56;13.10;52.60
52963;DHT22;38827;53.024;6.596;2024-03-17T13:40:33;13.00;51.20
52963;DHT22;38827;53.024;6.596;2024-03-17T13:43:00;13.00;51.00
52963;DHT22;38827;53.024;6.596;2024-03-17T13:45:44;12.90;51.80
52963;DHT22;38827;53.024;6.596;2024-03-17T13:48:23;12.90;50.90
52963;DHT22;38827;53.024;6.596;2024-03-17T13:50:48;12.80;51.50
52963;DHT22;38827;53.024;6.596;2024-03-17T13:53:15;12.70;51.60
52963;DHT22;38827;53.024;6.596;2024-03-17T13:55:44;12.60;51.60
52963;DHT22;38827;53.024;6.596;2024-03-17T13:58:11;12.50;51.40
52963;DHT22;38827;53.024;6.596;2024-03-17T14:00:37;12.50;51.80
52963;DHT22;38827;53.024;6.596;2024-03-17T14:03:15;12.50;51.70
52963;DHT22;38827;53.024;6.596;2024-03-17T14:05:46;12.40;51.30
52963;DHT22;38827;53.024;6.596;2024-03-17T14:08:12;12.40;51.70
52963;DHT22;38827;53.024;6.596;2024-03-17T14:10:38;12.30;51.70
52963;DHT22;38827;53.024;6.596;2024-03-17T14:13:04;12.30;51.70
52963;DHT22;38827;53.024;6.596;2024-03-17T14:15:33;12.20;51.90
52963;DHT22;38827;53.024;6.596;2024-03-17T14:18:17;12.20;52.10
52963;DHT22;38827;53.024;6.596;2024-03-17T14:23:43;12.10;52.30
52963;DHT22;38827;53.024;6.596;2024-03-17T14:26:16;12.10;52.20
52963;DHT22;38827;53.024;6.596;2024-03-17T14:29:05;12.00;52.50
52963;DHT22;38827;53.024;6.596;2024-03-17T14:35:22;12.00;52.20
52963;DHT22;38827;53.024;6.596;2024-03-17T14:48:41;11.90;52.30
52963;DHT22;38827;53.024;6.596;2024-03-17T14:51:11;11.90;53.10
52963;DHT22;38827;53.024;6.596;2024-03-17T14:56:31;11.90;53.00
52963;DHT22;38827;53.024;6.596;2024-03-17T15:02:31;12.00;53.40
52963;DHT22;38827;53.024;6.596;2024-03-17T15:07:50;12.00;52.90
52963;DHT22;38827;53.024;6.596;2024-03-17T15:10:25;12.00;53.00
52963;DHT22;38827;53.024;6.596;2024-03-17T15:15:31;12.00;53.20
52963;DHT22;38827;53.024;6.596;2024-03-17T15:17:58;12.00;52.90
52963;DHT22;38827;53.024;6.596;2024-03-17T15:20:43;11.90;53.40
52963;DHT22;38827;53.024;6.596;2024-03-17T15:23:21;12.00;53.50
52963;DHT22;38827;53.024;6.596;2024-03-17T15:26:01;11.90;53.90
52963;DHT22;38827;53.024;6.596;2024-03-17T15:28:50;11.90;54.00
52963;DHT22;38827;53.024;6.596;2024-03-17T15:38:15;11.90;53.30
52963;DHT22;38827;53.024;6.596;2024-03-17T15:40:43;11.80;53.90
52963;DHT22;38827;53.024;6.596;2024-03-17T15:43:18;11.80;53.60
52963;DHT22;38827;53.024;6.596;2024-03-17T15:45:45;11.80;53.30
52963;DHT22;38827;53.024;6.596;2024-03-17T15:51:34;11.80;53.50
52963;DHT22;38827;53.024;6.596;2024-03-17T15:54:15;11.80;53.60
52963;DHT22;38827;53.024;6.596;2024-03-17T15:56:47;11.80;53.70
52963;DHT22;38827;53.024;6.596;2024-03-17T16:08:42;11.70;54.80
52963;DHT22;38827;53.024;6.596;2024-03-17T16:11:25;11.70;54.70
52963;DHT22;38827;53.024;6.596;2024-03-17T16:14:19;11.70;54.70
52963;DHT22;38827;53.024;6.596;2024-03-17T16:20:08;11.60;55.00
52963;DHT22;38827;53.024;6.596;2024-03-17T16:22:52;11.60;55.20
52963;DHT22;38827;53.024;6.596;2024-03-17T16:25:32;11.60;55.50
52963;DHT22;38827;53.024;6.596;2024-03-17T16:28:35;11.60;55.50
52963;DHT22;38827;53.024;6.596;2024-03-17T16:31:11;11.60;55.60
52963;DHT22;38827;53.024;6.596;2024-03-17T16:33:56;11.50;55.90
52963;DHT22;38827;53.024;6.596;2024-03-17T16:36:37;11.50;56.00
52963;DHT22;38827;53.024;6.596;2024-03-17T16:39:58;11.50;55.90
52963;DHT22;38827;53.024;6.596;2024-03-17T16:42:42;11.40;56.10
52963;DHT22;38827;53.024;6.596;2024-03-17T16:45:10;11.40;56.40
52963;DHT22;38827;53.024;6.596;2024-03-17T16:47:56;11.30;56.50
52963;DHT22;38827;53.024;6.596;2024-03-17T16:54:26;11.30;56.90
52963;DHT22;38827;53.024;6.596;2024-03-17T16:57:36;11.30;57.10
52963;DHT22;38827;53.024;6.596;2024-03-17T17:00:17;11.20;57.30
52963;DHT22;38827;53.024;6.596;2024-03-17T17:07:03;11.20;57.50
52963;DHT22;38827;53.024;6.596;2024-03-17T17:09:57;11.10;57.80
52963;DHT22;38827;53.024;6.596;2024-03-17T17:19:41;11.00;58.20
52963;DHT22;38827;53.024;6.596;2024-03-17T17:36:41;10.90;58.70
52963;DHT22;38827;53.024;6.596;2024-03-17T17:39:23;10.80;58.70
52963;DHT22;38827;53.024;6.596;2024-03-17T17:42:02;10.80;58.60
52963;DHT22;38827;53.024;6.596;2024-03-17T17:44:33;10.90;58.80
52963;DHT22;38827;53.024;6.596;2024-03-17T17:47:07;10.80;58.90
52963;DHT22;38827;53.024;6.596;2024-03-17T17:49:35;10.80;58.60
52963;DHT22;38827;53.024;6.596;2024-03-17T17:52:16;10.80;58.70
52963;DHT22;38827;53.024;6.596;2024-03-17T17:54:48;10.80;58.50
52963;DHT22;38827;53.024;6.596;2024-03-17T17:57:17;10.80;58.60
52963;DHT22;38827;53.024;6.596;2024-03-17T17:59:42;10.70;58.40
52963;DHT22;38827;53.024;6.596;2024-03-17T18:02:08;10.70;58.30
52963;DHT22;38827;53.024;6.596;2024-03-17T18:04:34;10.70;58.30
52963;DHT22;38827;53.024;6.596;2024-03-17T18:07:00;10.70;58.40
52963;DHT22;38827;53.024;6.596;2024-03-17T18:09:25;10.70;58.60
52963;DHT22;38827;53.024;6.596;2024-03-17T18:11:54;10.70;58.60
52963;DHT22;38827;53.024;6.596;2024-03-17T18:17:32;10.60;58.40
52963;DHT22;38827;53.024;6.596;2024-03-17T18:23:06;10.60;58.50
52963;DHT22;38827;53.024;6.596;2024-03-17T18:25:34;10.50;58.40
52963;DHT22;38827;53.024;6.596;2024-03-17T18:28:00;10.50;58.70
52963;DHT22;38827;53.024;6.596;2024-03-17T18:30:27;10.50;58.70
52963;DHT22;38827;53.024;6.596;2024-03-17T18:33:19;10.50;58.70
52963;DHT22;38827;53.024;6.596;2024-03-17T18:36:04;10.50;58.50
52963;DHT22;38827;53.024;6.596;2024-03-17T18:38:31;10.50;58.50
52963;DHT22;38827;53.024;6.596;2024-03-17T18:43:25;10.40;58.70
52963;DHT22;38827;53.024;6.596;2024-03-17T18:45:51;10.40;58.90
52963;DHT22;38827;53.024;6.596;2024-03-17T18:48:16;10.40;59.00
52963;DHT22;38827;53.024;6.596;2024-03-17T18:50:43;10.40;59.10
52963;DHT22;38827;53.024;6.596;2024-03-17T18:53:08;10.30;59.00
52963;DHT22;38827;53.024;6.596;2024-03-17T18:55:34;10.30;59.00
52963;DHT22;38827;53.024;6.596;2024-03-17T18:58:00;10.30;58.90
52963;DHT22;38827;53.024;6.596;2024-03-17T19:00:26;10.30;58.90
52963;DHT22;38827;53.024;6.596;2024-03-17T19:02:55;10.30;58.90
52963;DHT22;38827;53.024;6.596;2024-03-17T19:05:26;10.30;58.90
52963;DHT22;38827;53.024;6.596;2024-03-17T19:07:59;10.30;58.90
52963;DHT22;38827;53.024;6.596;2024-03-17T19:10:27;10.30;58.90
52963;DHT22;38827;53.024;6.596;2024-03-17T19:12:53;10.30;58.80
52963;DHT22;38827;53.024;6.596;2024-03-17T19:15:22;10.30;58.80
52963;DHT22;38827;53.024;6.596;2024-03-17T19:17:48;10.30;58.80
52963;DHT22;38827;53.024;6.596;2024-03-17T19:23:05;10.30;58.80
52963;DHT22;38827;53.024;6.596;2024-03-17T19:31:58;10.20;58.90
52963;DHT22;38827;53.024;6.596;2024-03-17T19:37:55;10.20;59.40
52963;DHT22;38827;53.024;6.596;2024-03-17T19:47:05;10.10;60.20
52963;DHT22;38827;53.024;6.596;2024-03-17T19:52:53;10.10;60.60
52963;DHT22;38827;53.024;6.596;2024-03-17T19:55:31;10.10;61.00
52963;DHT22;38827;53.024;6.596;2024-03-17T19:57:57;10.10;61.30
52963;DHT22;38827;53.024;6.596;2024-03-17T20:00:23;10.00;61.50
52963;DHT22;38827;53.024;6.596;2024-03-17T20:02:48;10.00;61.70
52963;DHT22;38827;53.024;6.596;2024-03-17T20:05:19;10.00;62.00
52963;DHT22;38827;53.024;6.596;2024-03-17T20:07:46;10.00;62.40
52963;DHT22;38827;53.024;6.596;2024-03-17T20:10:11;9.90;62.60
52963;DHT22;38827;53.024;6.596;2024-03-17T20:12:58;9.90;63.10
52963;DHT22;38827;53.024;6.596;2024-03-17T20:15:36;9.90;63.90
52963;DHT22;38827;53.024;6.596;2024-03-17T20:18:02;9.80;64.20
52963;DHT22;38827;53.024;6.596;2024-03-17T20:21:02;9.80;64.30
52963;DHT22;38827;53.024;6.596;2024-03-17T20:23:37;9.70;64.90
52963;DHT22;38827;53.024;6.596;2024-03-17T20:26:03;9.70;65.50
52963;DHT22;38827;53.024;6.596;2024-03-17T20:28:44;9.70;65.80
52963;DHT22;38827;53.024;6.596;2024-03-17T20:31:31;9.60;66.50
52963;DHT22;38827;53.024;6.596;2024-03-17T20:44:46;9.40;68.30
52963;DHT22;38827;53.024;6.596;2024-03-17T20:47:18;9.40;68.50
52963;DHT22;38827;53.024;6.596;2024-03-17T20:53:03;9.30;69.10
52963;DHT22;38827;53.024;6.596;2024-03-17T20:55:54;9.30;69.30
52963;DHT22;38827;53.024;6.596;2024-03-17T21:01:45;9.30;69.90
52963;DHT22;38827;53.024;6.596;2024-03-17T21:12:05;9.20;70.90
52963;DHT22;38827;53.024;6.596;2024-03-17T21:14:43;9.20;70.70
52963;DHT22;38827;53.024;6.596;2024-03-17T21:17:15;9.20;70.80
52963;DHT22;38827;53.024;6.596;2024-03-17T21:19:44;9.20;70.90
52963;DHT22;38827;53.024;6.596;2024-03-17T21:22:34;9.20;70.90
52963;DHT22;38827;53.024;6.596;2024-03-17T21:25:09;9.20;71.20
52963;DHT22;38827;53.024;6.596;2024-03-17T21:27:42;9.20;71.20
52963;DHT22;38827;53.024;6.596;2024-03-17T21:30:31;9.20;71.30
52963;DHT22;38827;53.024;6.596;2024-03-17T21:35:53;9.20;71.30
52963;DHT22;38827;53.024;6.596;2024-03-17T21:38:23;9.10;71.50
52963;DHT22;38827;53.024;6.596;2024-03-17T21:40:55;9.10;71.50
52963;DHT22;38827;53.024;6.596;2024-03-17T21:43:31;9.10;71.70
52963;DHT22;38827;53.024;6.596;2024-03-17T21:46:06;9.10;71.60
52963;DHT22;38827;53.024;6.596;2024-03-17T21:51:04;9.10;71.80
52963;DHT22;38827;53.024;6.596;2024-03-17T21:53:31;9.10;71.70
52963;DHT22;38827;53.024;6.596;2024-03-17T21:56:25;9.10;72.00
52963;DHT22;38827;53.024;6.596;2024-03-17T21:58:57;9.10;72.00
52963;DHT22;38827;53.024;6.596;2024-03-17T22:01:26;9.00;72.10
52963;DHT22;38827;53.024;6.596;2024-03-17T22:03:55;9.00;72.20
52963;DHT22;38827;53.024;6.596;2024-03-17T22:06:24;9.00;72.20
52963;DHT22;38827;53.024;6.596;2024-03-17T22:08:53;9.00;72.20
52963;DHT22;38827;53.024;6.596;2024-03-17T22:11:25;9.00;72.10
52963;DHT22;38827;53.024;6.596;2024-03-17T22:13:51;9.00;72.10
52963;DHT22;38827;53.024;6.596;2024-03-17T22:16:17;9.00;72.10
52963;DHT22;38827;53.024;6.596;2024-03-17T22:18:44;9.00;72.20
52963;DHT22;38827;53.024;6.596;2024-03-17T22:21:12;9.00;72.30
52963;DHT22;38827;53.024;6.596;2024-03-17T22:23:50;9.00;72.40
52963;DHT22;38827;53.024;6.596;2024-03-17T22:26:16;9.00;72.30
52963;DHT22;38827;53.024;6.596;2024-03-17T22:28:59;9.00;72.40
52963;DHT22;38827;53.024;6.596;2024-03-17T22:31:51;9.00;72.50
52963;DHT22;38827;53.024;6.596;2024-03-17T22:34:19;9.00;72.50
52963;DHT22;38827;53.024;6.596;2024-03-17T22:36:48;9.00;72.50
52963;DHT22;38827;53.024;6.596;2024-03-17T22:42:16;8.90;72.60
52963;DHT22;38827;53.024;6.596;2024-03-17T22:44:51;8.90;72.80
52963;DHT22;38827;53.024;6.596;2024-03-17T22:47:57;8.90;72.70
52963;DHT22;38827;53.024;6.596;2024-03-17T22:50:23;8.90;72.80
52963;DHT22;38827;53.024;6.596;2024-03-17T22:52:52;8.90;72.80
52963;DHT22;38827;53.024;6.596;2024-03-17T22:55:31;8.90;72.90
52963;DHT22;38827;53.024;6.596;2024-03-17T22:58:03;8.90;73.10
52963;DHT22;38827;53.024;6.596;2024-03-17T23:00:31;8.90;73.20
52963;DHT22;38827;53.024;6.596;2024-03-17T23:03:23;8.90;73.30
52963;DHT22;38827;53.024;6.596;2024-03-17T23:06:11;8.90;73.40
52963;DHT22;38827;53.024;6.596;2024-03-17T23:09:03;8.90;73.40
52963;DHT22;38827;53.024;6.596;2024-03-17T23:11:49;8.90;73.70
52963;DHT22;38827;53.024;6.596;2024-03-17T23:14:21;8.90;73.60
52963;DHT22;38827;53.024;6.596;2024-03-17T23:16:50;8.90;73.60
52963;DHT22;38827;53.024;6.596;2024-03-17T23:19:20;8.90;73.70
52963;DHT22;38827;53.024;6.596;2024-03-17T23:21:49;8.90;73.70
52963;DHT22;38827;53.024;6.596;2024-03-17T23:24:14;8.90;73.80
52963;DHT22;38827;53.024;6.596;2024-03-17T23:26:49;8.90;73.90
52963;DHT22;38827;53.024;6.596;2024-03-17T23:29:21;8.90;73.90